createdAt,value
2022-10-29T00:00:07.229Z,6.45
2022-10-29T00:00:40.649Z,6.57
2022-10-29T00:01:12.779Z,7.45
2022-10-29T00:01:44.826Z,6.13
2022-10-29T00:02:16.789Z,6.63
2022-10-29T00:02:48.791Z,6.57
2022-10-29T00:03:21.349Z,6.55
2022-10-29T00:03:53.366Z,6.40
2022-10-29T00:04:25.330Z,6.03
2022-10-29T00:04:57.242Z,6.95
2022-10-29T00:05:29.267Z,7.10
2022-10-29T00:06:03.095Z,6.65
2022-10-29T00:06:35.078Z,6.15
2022-10-29T00:07:07.061Z,6.53
2022-10-29T00:07:39.071Z,6.13
2022-10-29T00:08:11.030Z,6.10
2022-10-29T00:08:42.988Z,6.43
2022-10-29T00:09:14.966Z,7.53
2022-10-29T00:09:46.986Z,6.78
2022-10-29T00:10:18.951Z,6.45
2022-10-29T00:10:50.925Z,6.20
2022-10-29T00:11:23.153Z,6.72
2022-10-29T00:11:55.134Z,6.43
2022-10-29T00:12:27.324Z,6.47
2022-10-29T00:13:02.724Z,7.72
2022-10-29T00:13:35.245Z,6.47
2022-10-29T00:14:07.200Z,6.57
2022-10-29T00:14:39.160Z,6.15
2022-10-29T00:15:11.260Z,6.55
2022-10-29T00:15:43.242Z,7.07
2022-10-29T00:16:16.554Z,6.53
2022-10-29T00:16:48.486Z,6.70
2022-10-29T00:17:20.438Z,6.60
2022-10-29T00:17:52.500Z,6.22
2022-10-29T00:18:24.516Z,6.68
2022-10-29T00:18:56.831Z,6.25
2022-10-29T00:19:29.055Z,6.80
2022-10-29T00:20:01.026Z,6.25
2022-10-29T00:20:33.010Z,6.60
2022-10-29T00:21:06.279Z,6.82
2022-10-29T00:21:39.700Z,6.47
2022-10-29T00:22:11.817Z,6.03
2022-10-29T00:22:43.739Z,6.93
2022-10-29T00:23:15.750Z,6.53
2022-10-29T00:23:48.226Z,6.68
2022-10-29T00:24:20.183Z,6.13
2022-10-29T00:24:52.136Z,6.18
2022-10-29T00:25:24.130Z,6.22
2022-10-29T00:25:57.046Z,6.65
2022-10-29T00:26:29.666Z,6.75
2022-10-29T00:27:01.637Z,5.88
2022-10-29T00:27:33.593Z,5.95
2022-10-29T00:28:05.612Z,6.45
2022-10-29T00:28:37.606Z,6.50
2022-10-29T00:29:09.570Z,6.65
2022-10-29T00:29:41.642Z,6.65
2022-10-29T00:30:13.704Z,6.13
2022-10-29T00:30:45.664Z,6.40
2022-10-29T00:31:19.056Z,6.60
2022-10-29T00:31:51.270Z,6.63
2022-10-29T00:32:23.312Z,6.82
2022-10-29T00:32:55.631Z,6.63
2022-10-29T00:33:27.777Z,6.35
2022-10-29T00:33:59.712Z,6.63
2022-10-29T00:34:31.651Z,6.15
2022-10-29T00:35:03.660Z,6.78
2022-10-29T00:35:35.621Z,6.90
2022-10-29T00:36:11.786Z,6.38
2022-10-29T00:36:43.762Z,5.47
2022-10-29T00:37:15.744Z,6.45
2022-10-29T00:37:47.831Z,5.60
2022-10-29T00:38:19.748Z,6.00
2022-10-29T00:38:51.715Z,5.95
2022-10-29T00:39:23.742Z,6.25
2022-10-29T00:39:55.679Z,5.53
2022-10-29T00:40:27.664Z,6.97
2022-10-29T00:40:59.669Z,6.18
2022-10-29T00:41:31.608Z,6.13
2022-10-29T00:42:04.792Z,6.90
2022-10-29T00:42:36.886Z,5.68
2022-10-29T00:43:12.379Z,6.43
2022-10-29T00:43:47.148Z,6.63
2022-10-29T00:44:20.397Z,6.40
2022-10-29T00:44:52.379Z,6.38
2022-10-29T00:45:24.361Z,5.90
2022-10-29T00:46:02.064Z,6.05
2022-10-29T00:46:35.495Z,6.32
2022-10-29T00:47:10.490Z,6.03
2022-10-29T00:47:42.437Z,6.70
2022-10-29T00:48:14.432Z,6.28
2022-10-29T00:48:48.025Z,6.07
2022-10-29T00:49:20.101Z,6.22
2022-10-29T00:50:00.721Z,6.25
2022-10-29T00:50:32.678Z,5.40
2022-10-29T00:51:07.035Z,5.70
2022-10-29T00:51:39.128Z,5.78
2022-10-29T00:52:11.252Z,6.15
2022-10-29T00:52:44.959Z,6.05
2022-10-29T00:53:19.713Z,6.45
2022-10-29T00:53:57.207Z,6.97
2022-10-29T00:54:30.498Z,6.22
2022-10-29T00:55:03.444Z,5.65
2022-10-29T00:55:35.483Z,6.38
2022-10-29T00:56:07.694Z,5.63
2022-10-29T00:56:43.024Z,6.22
2022-10-29T00:57:20.129Z,5.72
2022-10-29T00:57:53.849Z,6.55
2022-10-29T00:58:26.546Z,5.90
2022-10-29T00:58:58.558Z,5.65
2022-10-29T00:59:30.691Z,6.32
2022-10-29T01:00:02.771Z,6.00
2022-10-29T01:00:34.712Z,6.78
2022-10-29T01:01:06.749Z,6.00
2022-10-29T01:01:39.149Z,6.25
2022-10-29T01:02:11.417Z,6.40
2022-10-29T01:02:44.390Z,5.75
2022-10-29T01:03:16.462Z,6.30
2022-10-29T01:03:48.821Z,6.07
2022-10-29T01:04:20.860Z,6.55
2022-10-29T01:04:53.285Z,6.07
2022-10-29T01:05:25.722Z,5.68
2022-10-29T01:05:57.788Z,5.90
2022-10-29T01:06:30.149Z,6.70
2022-10-29T01:07:03.013Z,6.40
2022-10-29T01:07:34.986Z,6.25
2022-10-29T01:08:07.526Z,6.18
2022-10-29T01:08:39.761Z,5.75
2022-10-29T01:09:11.742Z,5.95
2022-10-29T01:09:43.848Z,5.43
2022-10-29T01:10:17.001Z,6.25
2022-10-29T01:10:57.917Z,6.03
2022-10-29T01:11:29.832Z,6.38
2022-10-29T01:12:20.630Z,5.15
2022-10-29T01:13:10.693Z,5.88
2022-10-29T01:13:42.672Z,6.22
2022-10-29T01:14:24.136Z,6.35
2022-10-29T01:14:58.883Z,5.55
2022-10-29T01:15:31.806Z,6.18
2022-10-29T01:16:14.346Z,5.68
2022-10-29T01:17:04.892Z,7.00
2022-10-29T01:17:45.363Z,6.07
2022-10-29T01:18:22.821Z,6.13
2022-10-29T01:19:24.199Z,5.47
2022-10-29T01:19:58.789Z,6.05
2022-10-29T01:20:33.475Z,5.97
2022-10-29T01:21:34.711Z,5.80
2022-10-29T01:22:09.609Z,5.53
2022-10-29T01:22:50.667Z,5.97
2022-10-29T01:23:41.024Z,5.90
2022-10-29T01:24:31.711Z,6.30
2022-10-29T01:25:06.428Z,5.95
2022-10-29T01:25:52.672Z,5.88
2022-10-29T01:26:30.358Z,5.65
2022-10-29T01:27:05.233Z,5.80
2022-10-29T01:27:37.164Z,5.90
2022-10-29T01:28:27.735Z,6.13
2022-10-29T01:29:11.702Z,5.97
2022-10-29T01:29:49.540Z,5.68
2022-10-29T01:30:28.529Z,5.95
2022-10-29T01:31:17.073Z,6.22
2022-10-29T01:31:52.051Z,5.47
2022-10-29T01:32:40.663Z,5.55
2022-10-29T01:33:16.318Z,5.88
2022-10-29T01:33:58.036Z,6.13
2022-10-29T01:34:29.994Z,6.55
2022-10-29T01:35:09.989Z,5.90
2022-10-29T01:36:00.902Z,5.57
2022-10-29T01:36:36.933Z,6.75
2022-10-29T01:37:27.722Z,5.97
2022-10-29T01:38:10.204Z,5.85
2022-10-29T01:38:54.396Z,5.68
2022-10-29T01:39:32.160Z,5.57
2022-10-29T01:40:04.074Z,6.10
2022-10-29T01:40:54.927Z,5.55
2022-10-29T01:41:35.959Z,6.22
2022-10-29T01:42:24.667Z,5.65
2022-10-29T01:43:06.386Z,5.93
2022-10-29T01:43:38.386Z,6.25
2022-10-29T01:44:14.562Z,5.78
2022-10-29T01:44:51.165Z,6.05
2022-10-29T01:45:29.332Z,6.57
2022-10-29T01:46:12.946Z,5.65
2022-10-29T01:47:04.848Z,5.50
2022-10-29T01:47:38.805Z,5.68
2022-10-29T01:48:16.454Z,5.80
2022-10-29T01:48:50.210Z,5.45
2022-10-29T01:49:25.627Z,5.93
2022-10-29T01:50:00.154Z,5.78
2022-10-29T01:50:32.423Z,5.80
2022-10-29T01:51:08.079Z,5.53
2022-10-29T01:51:40.483Z,5.90
2022-10-29T01:52:14.239Z,5.93
2022-10-29T01:52:47.398Z,5.35
2022-10-29T01:53:19.482Z,5.75
2022-10-29T01:53:51.950Z,5.97
2022-10-29T01:54:23.898Z,5.40
2022-10-29T01:54:55.927Z,6.00
2022-10-29T01:55:30.036Z,5.95
2022-10-29T01:56:02.027Z,6.28
2022-10-29T01:56:34.083Z,5.85
2022-10-29T01:57:25.957Z,5.70
2022-10-29T01:57:58.144Z,6.93
2022-10-29T01:58:30.718Z,5.30
2022-10-29T01:59:05.304Z,6.20
2022-10-29T01:59:51.523Z,5.35
2022-10-29T02:00:30.087Z,5.53
2022-10-29T02:01:09.563Z,5.25
2022-10-29T02:01:46.339Z,5.40
2022-10-29T02:02:55.468Z,5.70
2022-10-29T02:03:30.662Z,6.25
2022-10-29T02:04:02.674Z,5.15
2022-10-29T02:04:43.851Z,5.63
2022-10-29T02:05:30.881Z,5.82
2022-10-29T02:06:21.483Z,6.20
2022-10-29T02:07:02.401Z,5.57
2022-10-29T02:07:37.162Z,5.10
2022-10-29T02:08:11.846Z,6.22
2022-10-29T02:08:43.862Z,6.00
2022-10-29T02:09:28.792Z,5.90
2022-10-29T02:10:06.980Z,5.72
2022-10-29T02:10:43.890Z,5.70
2022-10-29T02:11:21.385Z,5.05
2022-10-29T02:12:03.731Z,5.78
2022-10-29T02:12:56.333Z,5.88
2022-10-29T02:13:31.269Z,5.53
2022-10-29T02:14:06.283Z,5.85
2022-10-29T02:14:45.972Z,5.53
2022-10-29T02:15:26.590Z,5.75
2022-10-29T02:15:59.486Z,5.88
2022-10-29T02:16:31.777Z,5.35
2022-10-29T02:17:04.301Z,5.78
2022-10-29T02:17:36.797Z,5.85
2022-10-29T02:18:08.989Z,6.10
2022-10-29T02:18:41.868Z,5.78
2022-10-29T02:19:13.822Z,6.40
2022-10-29T02:19:45.806Z,5.60
2022-10-29T02:20:18.241Z,5.30
2022-10-29T02:20:50.214Z,5.57
2022-10-29T02:21:22.224Z,5.60
2022-10-29T02:21:54.185Z,5.95
2022-10-29T02:22:26.121Z,5.70
2022-10-29T02:22:58.167Z,5.03
2022-10-29T02:23:30.109Z,5.43
2022-10-29T02:24:02.089Z,5.43
2022-10-29T02:24:34.007Z,5.60
2022-10-29T02:25:08.203Z,6.07
2022-10-29T02:25:40.355Z,5.18
2022-10-29T02:26:13.452Z,5.80
2022-10-29T02:26:45.443Z,5.60
2022-10-29T02:27:17.457Z,6.05
2022-10-29T02:27:49.449Z,5.32
2022-10-29T02:28:59.085Z,6.18
2022-10-29T02:29:31.049Z,6.03
2022-10-29T02:30:03.124Z,5.65
2022-10-29T02:30:35.524Z,6.07
2022-10-29T02:31:07.610Z,5.68
2022-10-29T02:31:39.525Z,5.30
2022-10-29T02:32:11.524Z,5.28
2022-10-29T02:32:43.544Z,6.28
2022-10-29T02:33:15.494Z,5.32
2022-10-29T02:33:47.451Z,5.60
2022-10-29T02:34:19.393Z,5.55
2022-10-29T02:34:51.379Z,5.55
2022-10-29T02:35:23.325Z,5.50
2022-10-29T02:35:55.283Z,5.38
2022-10-29T02:36:27.287Z,5.78
2022-10-29T02:36:59.261Z,6.32
2022-10-29T02:37:31.269Z,5.80
2022-10-29T02:38:03.234Z,6.13
2022-10-29T02:38:35.159Z,6.13
2022-10-29T02:39:07.130Z,5.43
2022-10-29T02:39:39.071Z,5.07
2022-10-29T02:40:11.360Z,5.60
2022-10-29T02:40:43.303Z,5.32
2022-10-29T02:41:15.270Z,5.10
2022-10-29T02:41:47.228Z,5.28
2022-10-29T02:42:19.178Z,5.40
2022-10-29T02:42:51.113Z,4.97
2022-10-29T02:43:23.070Z,5.25
2022-10-29T02:43:54.977Z,4.85
2022-10-29T02:44:26.942Z,4.88
2022-10-29T02:44:58.963Z,4.72
2022-10-29T02:45:30.907Z,5.70
2022-10-29T02:46:19.463Z,5.05
2022-10-29T02:46:51.437Z,5.50
2022-10-29T02:47:23.362Z,5.20
2022-10-29T02:47:55.743Z,4.85
2022-10-29T02:48:27.899Z,5.30
2022-10-29T02:48:59.824Z,5.50
2022-10-29T02:49:31.780Z,5.55
2022-10-29T02:50:03.864Z,4.90
2022-10-29T02:50:35.865Z,4.93
2022-10-29T02:51:08.033Z,5.47
2022-10-29T02:51:40.030Z,5.97
2022-10-29T02:52:12.011Z,5.65
2022-10-29T02:52:43.997Z,5.85
2022-10-29T02:53:15.984Z,5.72
2022-10-29T02:53:47.925Z,5.28
2022-10-29T02:54:19.854Z,5.85
2022-10-29T02:54:51.780Z,5.85
2022-10-29T02:55:23.691Z,5.55
2022-10-29T02:55:55.615Z,5.57
2022-10-29T02:56:27.582Z,5.38
2022-10-29T02:56:59.520Z,5.65
2022-10-29T02:57:31.508Z,5.53
2022-10-29T02:58:03.479Z,5.90
2022-10-29T02:58:35.432Z,5.32
2022-10-29T02:59:10.789Z,4.95
2022-10-29T02:59:43.975Z,4.85
2022-10-29T03:00:16.157Z,6.00
2022-10-29T03:00:51.425Z,5.68
2022-10-29T03:01:23.713Z,5.68
2022-10-29T03:01:55.892Z,5.22
2022-10-29T03:02:28.268Z,5.35
2022-10-29T03:03:00.812Z,5.35
2022-10-29T03:03:33.015Z,5.68
2022-10-29T03:04:05.049Z,5.70
2022-10-29T03:04:39.451Z,5.07
2022-10-29T03:05:11.608Z,5.32
2022-10-29T03:05:48.091Z,5.47
2022-10-29T03:06:21.462Z,5.30
2022-10-29T03:06:53.473Z,5.60
2022-10-29T03:07:25.457Z,5.32
2022-10-29T03:07:57.382Z,5.78
2022-10-29T03:08:29.358Z,5.25
2022-10-29T03:09:01.436Z,5.68
2022-10-29T03:09:33.431Z,5.32
2022-10-29T03:10:06.226Z,5.38
2022-10-29T03:10:38.148Z,5.07
2022-10-29T03:11:10.267Z,5.43
2022-10-29T03:11:42.222Z,5.70
2022-10-29T03:12:14.191Z,5.90
2022-10-29T03:12:46.200Z,5.97
2022-10-29T03:13:18.621Z,5.30
2022-10-29T03:13:50.585Z,5.10
2022-10-29T03:14:22.610Z,4.97
2022-10-29T03:14:54.539Z,6.03
2022-10-29T03:15:26.788Z,5.85
2022-10-29T03:15:58.745Z,5.45
2022-10-29T03:16:30.727Z,5.63
2022-10-29T03:17:02.689Z,6.03
2022-10-29T03:17:34.611Z,5.35
2022-10-29T03:18:06.653Z,5.75
2022-10-29T03:18:38.623Z,5.10
2022-10-29T03:19:10.583Z,4.90
2022-10-29T03:19:42.513Z,5.68
2022-10-29T03:20:14.483Z,5.22
2022-10-29T03:20:47.566Z,5.30
2022-10-29T03:21:19.547Z,5.78
2022-10-29T03:21:51.495Z,5.38
2022-10-29T03:22:23.477Z,5.25
2022-10-29T03:22:55.419Z,5.53
2022-10-29T03:23:27.433Z,5.82
2022-10-29T03:23:59.425Z,5.88
2022-10-29T03:24:31.352Z,5.38
2022-10-29T03:25:03.364Z,5.88
2022-10-29T03:25:35.305Z,5.40
2022-10-29T03:26:10.976Z,4.97
2022-10-29T03:26:42.899Z,4.97
2022-10-29T03:27:14.827Z,5.30
2022-10-29T03:27:46.896Z,5.45
2022-10-29T03:28:19.719Z,5.38
2022-10-29T03:28:51.644Z,5.70
2022-10-29T03:29:23.629Z,5.05
2022-10-29T03:29:55.573Z,4.72
2022-10-29T03:30:27.498Z,5.88
2022-10-29T03:30:59.511Z,5.18
2022-10-29T03:31:31.510Z,5.15
2022-10-29T03:32:03.499Z,5.22
2022-10-29T03:32:35.460Z,5.68
2022-10-29T03:33:07.484Z,5.00
2022-10-29T03:33:39.500Z,5.75
2022-10-29T03:34:11.432Z,5.72
2022-10-29T03:34:43.359Z,5.07
2022-10-29T03:35:15.688Z,4.93
2022-10-29T03:35:47.753Z,4.97
2022-10-29T03:36:19.691Z,4.78
2022-10-29T03:36:51.749Z,5.95
2022-10-29T03:37:23.703Z,5.63
2022-10-29T03:37:55.623Z,5.38
2022-10-29T03:38:27.881Z,5.35
2022-10-29T03:38:59.860Z,5.55
2022-10-29T03:39:31.814Z,5.40
2022-10-29T03:40:04.106Z,5.53
2022-10-29T03:40:36.090Z,5.20
2022-10-29T03:41:10.619Z,6.13
2022-10-29T03:41:42.825Z,5.60
2022-10-29T03:42:14.750Z,6.00
2022-10-29T03:42:46.721Z,5.60
2022-10-29T03:43:18.947Z,5.07
2022-10-29T03:43:51.175Z,5.55
2022-10-29T03:44:23.206Z,5.15
2022-10-29T03:44:55.159Z,5.95
2022-10-29T03:45:27.248Z,5.82
2022-10-29T03:45:59.248Z,5.32
2022-10-29T03:46:31.234Z,5.68
2022-10-29T03:47:03.236Z,5.82
2022-10-29T03:47:35.469Z,5.18
2022-10-29T03:48:07.425Z,5.65
2022-10-29T03:48:39.374Z,5.03
2022-10-29T03:49:11.334Z,5.65
2022-10-29T03:49:43.312Z,5.95
2022-10-29T03:50:15.268Z,5.63
2022-10-29T03:50:54.144Z,6.13
2022-10-29T03:51:26.175Z,5.18
2022-10-29T03:51:58.124Z,5.93
2022-10-29T03:52:30.034Z,5.63
2022-10-29T03:53:01.996Z,5.20
2022-10-29T03:53:34.968Z,5.05
2022-10-29T03:54:06.957Z,5.47
2022-10-29T03:54:38.903Z,5.47
2022-10-29T03:55:10.864Z,5.97
2022-10-29T03:55:42.800Z,5.55
2022-10-29T03:56:14.752Z,5.05
2022-10-29T03:56:46.689Z,5.75
2022-10-29T03:57:18.637Z,5.55
2022-10-29T03:57:50.676Z,6.00
2022-10-29T03:58:22.839Z,5.80
2022-10-29T03:58:54.778Z,5.82
2022-10-29T03:59:26.687Z,4.95
2022-10-29T03:59:58.822Z,5.18
2022-10-29T04:00:30.804Z,5.05
2022-10-29T04:01:04.535Z,5.93
2022-10-29T04:01:36.575Z,6.25
2022-10-29T04:02:09.078Z,5.43
2022-10-29T04:02:41.362Z,5.10
2022-10-29T04:03:13.394Z,6.13
2022-10-29T04:03:45.346Z,5.63
2022-10-29T04:04:17.286Z,5.65
2022-10-29T04:04:49.311Z,6.53
2022-10-29T04:05:21.282Z,5.38
2022-10-29T04:05:53.333Z,5.95
2022-10-29T04:06:25.558Z,6.00
2022-10-29T04:06:57.514Z,5.60
2022-10-29T04:07:29.455Z,5.47
2022-10-29T04:08:01.525Z,5.80
2022-10-29T04:08:33.527Z,5.55
2022-10-29T04:09:05.478Z,5.88
2022-10-29T04:09:37.416Z,5.78
2022-10-29T04:10:09.482Z,5.63
2022-10-29T04:10:48.224Z,5.80
2022-10-29T04:11:20.228Z,6.13
2022-10-29T04:11:52.158Z,5.43
2022-10-29T04:12:24.104Z,5.75
2022-10-29T04:12:56.400Z,5.70
2022-10-29T04:13:28.544Z,5.82
2022-10-29T04:14:00.492Z,5.80
2022-10-29T04:14:32.509Z,5.68
2022-10-29T04:15:04.707Z,5.70
2022-10-29T04:15:36.626Z,5.63
2022-10-29T04:16:08.887Z,5.47
2022-10-29T04:16:40.825Z,5.50
2022-10-29T04:17:12.978Z,5.60
2022-10-29T04:17:44.921Z,5.38
2022-10-29T04:18:16.884Z,6.10
2022-10-29T04:18:49.506Z,5.10
2022-10-29T04:19:21.438Z,5.53
2022-10-29T04:19:53.398Z,6.30
2022-10-29T04:20:45.439Z,4.93
2022-10-29T04:24:32.463Z,6.47
2022-10-29T04:26:55.404Z,6.15
2022-10-29T04:28:43.748Z,6.00
2022-10-29T04:29:05.278Z,5.60
2022-10-29T04:29:37.259Z,5.85
2022-10-29T04:30:09.484Z,5.82
2022-10-29T04:30:41.428Z,5.50
2022-10-29T04:31:13.789Z,5.55
2022-10-29T04:31:45.747Z,5.60
2022-10-29T04:32:17.762Z,5.85
2022-10-29T04:32:49.702Z,5.82
2022-10-29T04:33:21.824Z,5.82
2022-10-29T04:33:53.985Z,6.35
2022-10-29T04:34:25.948Z,6.47
2022-10-29T04:34:57.939Z,6.00
2022-10-29T04:35:29.942Z,5.50
2022-10-29T04:36:02.011Z,5.90
2022-10-29T04:36:33.973Z,5.80
2022-10-29T04:37:05.969Z,5.50
2022-10-29T04:37:37.946Z,5.57
2022-10-29T04:38:10.840Z,6.45
2022-10-29T04:38:42.826Z,6.40
2022-10-29T04:39:17.170Z,5.65
2022-10-29T04:39:51.550Z,6.47
2022-10-29T04:40:24.431Z,6.15
2022-10-29T04:40:59.820Z,5.78
2022-10-29T04:41:31.829Z,5.43
2022-10-29T04:42:03.803Z,5.65
2022-10-29T04:42:36.561Z,5.80
2022-10-29T04:43:08.510Z,5.80
2022-10-29T04:43:40.450Z,6.05
2022-10-29T04:44:12.421Z,5.85
2022-10-29T04:44:44.385Z,5.90
2022-10-29T04:45:16.384Z,5.65
2022-10-29T04:45:55.300Z,6.25
2022-10-29T04:46:27.311Z,6.22
2022-10-29T04:46:59.315Z,5.57
2022-10-29T04:47:31.266Z,5.28
2022-10-29T04:48:04.266Z,5.60
2022-10-29T04:48:36.357Z,6.35
2022-10-29T04:49:08.380Z,5.07
2022-10-29T04:49:40.610Z,5.85
2022-10-29T04:50:12.697Z,5.50
2022-10-29T04:50:44.709Z,5.57
2022-10-29T04:51:19.329Z,5.97
2022-10-29T04:51:51.341Z,5.68
2022-10-29T04:52:23.409Z,5.40
2022-10-29T04:52:59.128Z,5.55
2022-10-29T04:53:31.298Z,5.65
2022-10-29T04:54:03.403Z,6.45
2022-10-29T04:54:35.305Z,5.50
2022-10-29T04:55:07.574Z,5.63
2022-10-29T04:55:39.840Z,5.97
2022-10-29T04:56:11.813Z,5.95
2022-10-29T04:56:43.850Z,5.63
2022-10-29T04:57:15.809Z,6.43
2022-10-29T04:57:50.806Z,5.68
2022-10-29T04:58:22.757Z,6.10
2022-10-29T04:58:54.764Z,6.68
2022-10-29T04:59:26.696Z,5.75
2022-10-29T04:59:58.664Z,6.35
2022-10-29T05:00:30.603Z,6.00
2022-10-29T05:01:04.999Z,6.07
2022-10-29T05:01:37.235Z,6.00
2022-10-29T05:02:10.209Z,6.40
2022-10-29T05:02:42.175Z,5.97
2022-10-29T05:03:14.158Z,5.72
2022-10-29T05:03:46.165Z,5.78
2022-10-29T05:04:18.140Z,5.10
2022-10-29T05:04:50.051Z,5.43
2022-10-29T05:05:22.041Z,6.13
2022-10-29T05:05:53.971Z,6.57
2022-10-29T05:06:25.894Z,7.40
2022-10-29T05:06:57.821Z,6.20
2022-10-29T05:07:29.832Z,5.93
2022-10-29T05:08:02.985Z,5.32
2022-10-29T05:08:34.982Z,5.82
2022-10-29T05:09:06.961Z,5.43
2022-10-29T05:09:38.946Z,5.75
2022-10-29T05:10:11.177Z,6.05
2022-10-29T05:10:43.229Z,6.68
2022-10-29T05:11:15.176Z,6.15
2022-10-29T05:11:47.176Z,6.03
2022-10-29T05:12:19.147Z,5.80
2022-10-29T05:12:56.426Z,5.97
2022-10-29T05:13:28.593Z,6.00
2022-10-29T05:14:00.645Z,5.80
2022-10-29T05:14:32.634Z,5.93
2022-10-29T05:15:04.958Z,5.90
2022-10-29T05:15:37.162Z,5.35
2022-10-29T05:16:09.141Z,5.35
2022-10-29T05:16:41.121Z,6.10
2022-10-29T05:17:13.061Z,6.03
2022-10-29T05:17:45.042Z,5.40
2022-10-29T05:18:17.000Z,5.63
2022-10-29T05:18:48.913Z,5.90
2022-10-29T05:19:20.835Z,5.22
2022-10-29T05:19:52.781Z,6.00
2022-10-29T05:20:24.783Z,5.20
2022-10-29T05:20:57.074Z,6.28
2022-10-29T05:21:29.078Z,6.28
2022-10-29T05:22:01.020Z,5.63
2022-10-29T05:22:33.001Z,5.70
2022-10-29T05:23:06.125Z,5.72
2022-10-29T05:23:38.087Z,5.90
2022-10-29T05:24:10.107Z,5.90
2022-10-29T05:24:42.088Z,6.07
2022-10-29T05:25:14.144Z,6.10
2022-10-29T05:25:49.100Z,6.28
2022-10-29T05:26:21.056Z,5.78
2022-10-29T05:26:53.010Z,5.88
2022-10-29T05:27:24.954Z,5.38
2022-10-29T05:28:03.937Z,6.03
2022-10-29T05:28:35.971Z,5.55
2022-10-29T05:29:07.927Z,5.40
2022-10-29T05:29:39.953Z,6.10
2022-10-29T05:30:11.986Z,5.78
2022-10-29T05:30:43.903Z,5.80
2022-10-29T05:31:15.829Z,5.60
2022-10-29T05:31:47.758Z,5.43
2022-10-29T05:32:19.740Z,6.47
2022-10-29T05:32:51.735Z,5.70
2022-10-29T05:33:24.442Z,5.82
2022-10-29T05:33:56.449Z,6.00
2022-10-29T05:34:28.435Z,5.68
2022-10-29T05:35:00.414Z,5.15
2022-10-29T05:35:32.441Z,5.88
2022-10-29T05:36:04.599Z,5.53
2022-10-29T05:36:36.588Z,5.88
2022-10-29T05:37:08.535Z,6.38
2022-10-29T05:37:40.490Z,5.53
2022-10-29T05:38:13.357Z,4.80
2022-10-29T05:38:45.255Z,5.30
2022-10-29T05:39:17.490Z,5.78
2022-10-29T05:39:49.634Z,5.72
2022-10-29T05:40:21.990Z,5.85
2022-10-29T05:40:53.907Z,5.13
2022-10-29T05:41:25.863Z,5.03
2022-10-29T05:41:57.804Z,6.20
2022-10-29T05:42:29.771Z,5.50
2022-10-29T05:43:02.145Z,5.90
2022-10-29T05:43:34.318Z,5.72
2022-10-29T05:44:06.415Z,5.47
2022-10-29T05:44:38.427Z,5.95
2022-10-29T05:45:10.469Z,5.63
2022-10-29T05:45:42.760Z,5.47
2022-10-29T05:46:15.003Z,5.75
2022-10-29T05:46:50.160Z,5.68
2022-10-29T05:47:22.146Z,6.65
2022-10-29T05:47:57.923Z,6.18
2022-10-29T05:48:30.103Z,6.40
2022-10-29T05:49:02.029Z,5.63
2022-10-29T05:49:34.047Z,6.43
2022-10-29T05:50:06.294Z,6.10
2022-10-29T05:50:38.268Z,6.38
2022-10-29T05:51:10.538Z,5.22
2022-10-29T05:51:42.473Z,6.45
2022-10-29T05:52:14.446Z,6.20
2022-10-29T05:52:54.414Z,5.60
2022-10-29T05:53:26.600Z,6.40
2022-10-29T05:53:58.521Z,5.55
2022-10-29T05:54:30.506Z,5.85
2022-10-29T05:55:02.489Z,6.18
2022-10-29T05:55:34.958Z,6.38
2022-10-29T05:56:07.273Z,5.93
2022-10-29T05:56:39.212Z,6.43
2022-10-29T05:57:11.217Z,6.13
2022-10-29T05:57:43.164Z,5.60
2022-10-29T05:58:15.094Z,5.93
2022-10-29T05:58:52.721Z,6.50
2022-10-29T05:59:25.953Z,6.03
2022-10-29T06:00:00.578Z,6.47
2022-10-29T06:00:33.974Z,6.57
2022-10-29T06:01:07.398Z,5.90
2022-10-29T06:01:39.529Z,6.53
2022-10-29T06:02:11.694Z,6.60
2022-10-29T06:02:44.385Z,5.90
2022-10-29T06:03:20.132Z,6.63
2022-10-29T06:04:25.037Z,6.43
2022-10-29T06:04:56.976Z,6.10
2022-10-29T06:05:29.186Z,6.47
2022-10-29T06:06:01.143Z,6.32
2022-10-29T06:06:34.083Z,6.28
2022-10-29T06:07:06.110Z,5.75
2022-10-29T06:07:38.109Z,5.75
2022-10-29T06:08:10.104Z,6.22
2022-10-29T06:08:42.114Z,6.32
2022-10-29T06:09:14.079Z,5.80
2022-10-29T06:09:46.027Z,5.88
2022-10-29T06:10:17.951Z,5.40
2022-10-29T06:10:49.947Z,6.00
2022-10-29T06:11:21.919Z,5.70
2022-10-29T06:11:54.910Z,6.05
2022-10-29T06:12:29.982Z,6.25
2022-10-29T06:13:08.998Z,6.55
2022-10-29T06:13:40.934Z,5.68
2022-10-29T06:14:12.917Z,6.18
2022-10-29T06:14:44.855Z,6.53
2022-10-29T06:15:17.066Z,5.60
2022-10-29T06:15:49.797Z,5.35
2022-10-29T06:16:22.027Z,5.80
2022-10-29T06:16:54.002Z,5.55
2022-10-29T06:17:26.390Z,6.50
2022-10-29T06:17:58.514Z,5.95
2022-10-29T06:18:30.742Z,5.43
2022-10-29T06:19:02.756Z,6.03
2022-10-29T06:19:34.748Z,6.13
2022-10-29T06:20:07.120Z,6.65
2022-10-29T06:20:39.441Z,6.05
2022-10-29T06:21:11.430Z,5.55
2022-10-29T06:21:43.485Z,5.97
2022-10-29T06:22:15.498Z,5.80
2022-10-29T06:22:47.570Z,5.95
2022-10-29T06:23:19.547Z,6.35
2022-10-29T06:23:53.312Z,6.20
2022-10-29T06:24:25.779Z,5.85
2022-10-29T06:24:57.738Z,5.80
2022-10-29T06:25:30.003Z,6.00
2022-10-29T06:26:03.380Z,6.80
2022-10-29T06:26:35.370Z,5.88
2022-10-29T06:27:07.363Z,6.10
2022-10-29T06:27:39.309Z,5.82
2022-10-29T06:28:12.178Z,6.50
2022-10-29T06:28:44.233Z,6.03
2022-10-29T06:29:16.173Z,5.55
2022-10-29T06:29:48.131Z,5.88
2022-10-29T06:30:20.064Z,6.55
2022-10-29T06:30:52.020Z,6.43
2022-10-29T06:31:24.060Z,6.32
2022-10-29T06:31:56.034Z,5.85
2022-10-29T06:32:27.979Z,6.45
2022-10-29T06:33:00.221Z,5.82
2022-10-29T06:33:32.206Z,7.18
2022-10-29T06:34:04.197Z,6.20
2022-10-29T06:34:36.146Z,5.50
2022-10-29T06:35:08.459Z,5.63
2022-10-29T06:35:40.407Z,6.40
2022-10-29T06:36:12.401Z,6.53
2022-10-29T06:36:44.350Z,5.85
2022-10-29T06:37:16.389Z,6.10
2022-10-29T06:37:48.457Z,6.28
2022-10-29T06:38:20.430Z,5.95
2022-10-29T06:38:52.431Z,5.82
2022-10-29T06:39:24.388Z,6.53
2022-10-29T06:39:56.349Z,6.00
2022-10-29T06:40:28.293Z,5.82
2022-10-29T06:41:00.251Z,6.30
2022-10-29T06:41:32.251Z,6.03
2022-10-29T06:42:04.348Z,6.82
2022-10-29T06:42:36.309Z,6.57
2022-10-29T06:43:10.258Z,6.40
2022-10-29T06:43:42.186Z,6.38
2022-10-29T06:44:14.126Z,6.53
2022-10-29T06:44:46.075Z,6.80
2022-10-29T06:45:18.145Z,7.20
2022-10-29T06:45:50.230Z,7.55
2022-10-29T06:46:22.238Z,7.03
2022-10-29T06:46:54.183Z,7.10
2022-10-29T06:47:26.127Z,7.05
2022-10-29T06:47:58.549Z,7.18
2022-10-29T06:48:30.912Z,7.25
2022-10-29T06:49:02.853Z,7.93
2022-10-29T06:49:34.798Z,7.50
2022-10-29T06:50:07.137Z,7.20
2022-10-29T06:50:39.131Z,7.03
2022-10-29T06:51:11.132Z,7.78
2022-10-29T06:51:43.213Z,7.30
2022-10-29T06:52:15.217Z,7.82
2022-10-29T06:52:59.649Z,7.68
2022-10-29T06:53:31.913Z,7.97
2022-10-29T06:54:03.915Z,8.07
2022-10-29T06:54:35.894Z,8.15
2022-10-29T06:55:08.644Z,8.27
2022-10-29T06:55:40.979Z,8.98
2022-10-29T06:56:13.010Z,8.57
2022-10-29T06:56:44.969Z,8.52
2022-10-29T06:57:16.907Z,8.95
2022-10-29T06:57:55.508Z,9.40
2022-10-29T06:58:27.440Z,9.40
2022-10-29T06:58:59.364Z,8.80
2022-10-29T06:59:31.296Z,9.32
2022-10-29T07:00:07.420Z,8.73
2022-10-29T07:00:41.659Z,8.70
2022-10-29T07:01:13.801Z,7.82
2022-10-29T07:01:46.635Z,8.30
2022-10-29T07:02:19.327Z,8.70
2022-10-29T07:02:51.394Z,8.95
2022-10-29T07:03:23.444Z,9.00
2022-10-29T07:03:55.458Z,9.20
2022-10-29T07:04:27.401Z,9.25
2022-10-29T07:04:59.359Z,10.13
2022-10-29T07:05:31.946Z,9.65
2022-10-29T07:06:03.974Z,8.75
2022-10-29T07:06:35.959Z,9.07
2022-10-29T07:07:07.902Z,9.20
2022-10-29T07:07:39.913Z,9.85
2022-10-29T07:08:11.887Z,8.98
2022-10-29T07:08:43.864Z,9.40
2022-10-29T07:09:15.842Z,10.82
2022-10-29T07:09:47.813Z,9.80
2022-10-29T07:10:20.523Z,9.48
2022-10-29T07:10:53.425Z,11.15
2022-10-29T07:11:25.341Z,9.80
2022-10-29T07:11:57.330Z,9.98
2022-10-29T07:12:29.322Z,11.02
2022-10-29T07:13:01.466Z,9.02
2022-10-29T07:13:33.443Z,10.18
2022-10-29T07:14:09.857Z,10.13
2022-10-29T07:14:41.866Z,10.23
2022-10-29T07:15:13.907Z,8.10
2022-10-29T07:15:45.866Z,10.23
2022-10-29T07:16:17.857Z,9.15
2022-10-29T07:16:49.803Z,9.63
2022-10-29T07:17:21.788Z,10.02
2022-10-29T07:17:54.870Z,10.98
2022-10-29T07:18:26.970Z,9.60
2022-10-29T07:18:58.928Z,9.68
2022-10-29T07:19:30.903Z,9.25
2022-10-29T07:20:03.648Z,9.80
2022-10-29T07:20:36.975Z,10.20
2022-10-29T07:21:09.722Z,8.90
2022-10-29T07:21:41.671Z,9.57
2022-10-29T07:22:13.641Z,9.70
2022-10-29T07:22:46.883Z,10.07
2022-10-29T07:23:19.105Z,9.85
2022-10-29T07:23:51.094Z,10.20
2022-10-29T07:24:23.083Z,9.57
2022-10-29T07:24:57.173Z,9.95
2022-10-29T07:25:32.752Z,9.65
2022-10-29T07:26:04.751Z,9.93
2022-10-29T07:26:37.172Z,10.60
2022-10-29T07:27:09.371Z,8.82
2022-10-29T07:27:41.462Z,8.75
2022-10-29T07:28:16.165Z,9.50
2022-10-29T07:28:48.129Z,10.18
2022-10-29T07:29:20.080Z,9.35
2022-10-29T07:29:52.038Z,9.65
2022-10-29T07:30:24.009Z,9.65
2022-10-29T07:30:58.974Z,9.05